sensor_id;sensor_type;location;lat;lon;timestamp;P1;durP1;ratioP1;P2;durP2;ratioP2
48042;SDS011;33988;47.992;8.820;2024-03-23T00:53:02;7.40;;;3.85;;
48042;SDS011;33988;47.992;8.820;2024-03-23T00:55:29;4.55;;;3.40;;
48042;SDS011;33988;47.992;8.820;2024-03-23T00:57:55;6.65;;;3.63;;
48042;SDS011;33988;47.992;8.820;2024-03-23T01:00:21;5.20;;;3.70;;
48042;SDS011;33988;47.992;8.820;2024-03-23T01:02:47;4.68;;;3.10;;
48042;SDS011;33988;47.992;8.820;2024-03-23T01:05:13;5.28;;;3.60;;
48042;SDS011;33988;47.992;8.820;2024-03-23T01:07:42;4.68;;;3.10;;
48042;SDS011;33988;47.992;8.820;2024-03-23T01:10:09;4.97;;;3.20;;
48042;SDS011;33988;47.992;8.820;2024-03-23T01:12:40;6.03;;;3.20;;
48042;SDS011;33988;47.992;8.820;2024-03-23T01:15:06;5.57;;;3.30;;
48042;SDS011;33988;47.992;8.820;2024-03-23T01:17:32;7.30;;;2.72;;
48042;SDS011;33988;47.992;8.820;2024-03-23T01:19:58;4.90;;;2.88;;
48042;SDS011;33988;47.992;8.820;2024-03-23T01:22:24;4.22;;;3.40;;
48042;SDS011;33988;47.992;8.820;2024-03-23T01:24:53;4.63;;;3.13;;
48042;SDS011;33988;47.992;8.820;2024-03-23T01:27:19;5.25;;;3.20;;
48042;SDS011;33988;47.992;8.820;2024-03-23T01:29:44;3.97;;;3.22;;
48042;SDS011;33988;47.992;8.820;2024-03-23T01:32:13;5.45;;;3.38;;
48042;SDS011;33988;47.992;8.820;2024-03-23T01:34:39;4.55;;;3.25;;
48042;SDS011;33988;47.992;8.820;2024-03-23T01:37:05;5.65;;;3.13;;
48042;SDS011;33988;47.992;8.820;2024-03-23T01:39:31;5.32;;;3.50;;
48042;SDS011;33988;47.992;8.820;2024-03-23T01:41:56;5.35;;;3.67;;
48042;SDS011;33988;47.992;8.820;2024-03-23T01:44:22;4.22;;;3.20;;
48042;SDS011;33988;47.992;8.820;2024-03-23T01:46:48;7.43;;;3.65;;
48042;SDS011;33988;47.992;8.820;2024-03-23T01:49:17;7.07;;;3.70;;
48042;SDS011;33988;47.992;8.820;2024-03-23T01:51:45;4.82;;;3.22;;
48042;SDS011;33988;47.992;8.820;2024-03-23T01:54:12;5.38;;;3.97;;
48042;SDS011;33988;47.992;8.820;2024-03-23T01:56:38;5.85;;;3.92;;
48042;SDS011;33988;47.992;8.820;2024-03-23T01:59:04;6.07;;;3.95;;
48042;SDS011;33988;47.992;8.820;2024-03-23T02:01:37;7.63;;;4.30;;
48042;SDS011;33988;47.992;8.820;2024-03-23T02:04:03;6.68;;;3.58;;
48042;SDS011;33988;47.992;8.820;2024-03-23T02:06:29;5.90;;;3.67;;
48042;SDS011;33988;47.992;8.820;2024-03-23T02:08:56;5.18;;;3.80;;
48042;SDS011;33988;47.992;8.820;2024-03-23T02:11:27;7.10;;;4.15;;
48042;SDS011;33988;47.992;8.820;2024-03-23T02:13:55;5.45;;;3.58;;
48042;SDS011;33988;47.992;8.820;2024-03-23T02:16:21;5.25;;;3.90;;
48042;SDS011;33988;47.992;8.820;2024-03-23T02:18:47;5.18;;;3.58;;
48042;SDS011;33988;47.992;8.820;2024-03-23T02:21:15;5.32;;;3.65;;
48042;SDS011;33988;47.992;8.820;2024-03-23T02:23:41;4.43;;;3.47;;
48042;SDS011;33988;47.992;8.820;2024-03-23T02:26:07;7.22;;;3.35;;
48042;SDS011;33988;47.992;8.820;2024-03-23T02:28:33;4.72;;;3.35;;
48042;SDS011;33988;47.992;8.820;2024-03-23T02:31:01;6.82;;;3.70;;
48042;SDS011;33988;47.992;8.820;2024-03-23T02:33:29;3.85;;;3.05;;
48042;SDS011;33988;47.992;8.820;2024-03-23T02:35:55;5.38;;;3.65;;
48042;SDS011;33988;47.992;8.820;2024-03-23T02:38:22;6.90;;;3.58;;
48042;SDS011;33988;47.992;8.820;2024-03-23T02:40:49;5.35;;;3.45;;
48042;SDS011;33988;47.992;8.820;2024-03-23T02:43:17;4.78;;;3.70;;
48042;SDS011;33988;47.992;8.820;2024-03-23T02:45:43;5.72;;;3.33;;
48042;SDS011;33988;47.992;8.820;2024-03-23T02:48:09;4.60;;;3.20;;
48042;SDS011;33988;47.992;8.820;2024-03-23T02:50:35;6.50;;;3.50;;
48042;SDS011;33988;47.992;8.820;2024-03-23T02:53:01;4.57;;;3.53;;
48042;SDS011;33988;47.992;8.820;2024-03-23T02:55:27;6.18;;;3.67;;
48042;SDS011;33988;47.992;8.820;2024-03-23T02:57:55;6.60;;;3.92;;
48042;SDS011;33988;47.992;8.820;2024-03-23T03:00:27;6.40;;;3.95;;
48042;SDS011;33988;47.992;8.820;2024-03-23T03:02:54;7.25;;;3.83;;
48042;SDS011;33988;47.992;8.820;2024-03-23T03:05:22;5.18;;;3.45;;
48042;SDS011;33988;47.992;8.820;2024-03-23T03:07:51;5.78;;;3.85;;
48042;SDS011;33988;47.992;8.820;2024-03-23T03:10:17;6.45;;;3.90;;
48042;SDS011;33988;47.992;8.820;2024-03-23T03:12:43;4.40;;;3.40;;
48042;SDS011;33988;47.992;8.820;2024-03-23T03:15:09;6.20;;;4.10;;
48042;SDS011;33988;47.992;8.820;2024-03-23T03:17:35;6.63;;;3.90;;
48042;SDS011;33988;47.992;8.820;2024-03-23T03:20:03;7.75;;;4.30;;
48042;SDS011;33988;47.992;8.820;2024-03-23T03:22:38;7.18;;;4.30;;
48042;SDS011;33988;47.992;8.820;2024-03-23T03:25:05;7.75;;;4.28;;
48042;SDS011;33988;47.992;8.820;2024-03-23T03:27:32;6.68;;;3.75;;
48042;SDS011;33988;47.992;8.820;2024-03-23T03:30:01;5.35;;;4.18;;
48042;SDS011;33988;47.992;8.820;2024-03-23T03:32:31;8.10;;;4.18;;
48042;SDS011;33988;47.992;8.820;2024-03-23T03:34:58;4.90;;;3.20;;
48042;SDS011;33988;47.992;8.820;2024-03-23T03:37:24;4.43;;;2.85;;
48042;SDS011;33988;47.992;8.820;2024-03-23T03:39:52;3.58;;;2.97;;
48042;SDS011;33988;47.992;8.820;2024-03-23T03:42:18;5.35;;;3.00;;
48042;SDS011;33988;47.992;8.820;2024-03-23T03:44:44;3.13;;;2.65;;
48042;SDS011;33988;47.992;8.820;2024-03-23T03:47:10;3.42;;;2.50;;
48042;SDS011;33988;47.992;8.820;2024-03-23T03:49:38;3.50;;;2.50;;
48042;SDS011;33988;47.992;8.820;2024-03-23T03:52:07;3.70;;;2.65;;
48042;SDS011;33988;47.992;8.820;2024-03-23T03:54:33;3.33;;;2.55;;
48042;SDS011;33988;47.992;8.820;2024-03-23T03:57:01;2.45;;;2.20;;
48042;SDS011;33988;47.992;8.820;2024-03-23T03:59:29;5.65;;;2.53;;
48042;SDS011;33988;47.992;8.820;2024-03-23T04:01:55;2.50;;;2.25;;
48042;SDS011;33988;47.992;8.820;2024-03-23T04:04:23;4.40;;;2.60;;
48042;SDS011;33988;47.992;8.820;2024-03-23T04:06:49;2.90;;;2.22;;
48042;SDS011;33988;47.992;8.820;2024-03-23T04:09:15;3.33;;;2.75;;
48042;SDS011;33988;47.992;8.820;2024-03-23T04:11:41;2.75;;;2.20;;
48042;SDS011;33988;47.992;8.820;2024-03-23T04:14:06;2.95;;;2.20;;
48042;SDS011;33988;47.992;8.820;2024-03-23T04:16:36;2.85;;;2.10;;
48042;SDS011;33988;47.992;8.820;2024-03-23T04:19:04;3.45;;;2.13;;
48042;SDS011;33988;47.992;8.820;2024-03-23T04:21:33;3.95;;;2.17;;
48042;SDS011;33988;47.992;8.820;2024-03-23T04:24:01;4.18;;;2.30;;
48042;SDS011;33988;47.992;8.820;2024-03-23T04:26:30;3.92;;;3.10;;
48042;SDS011;33988;47.992;8.820;2024-03-23T04:29:06;6.95;;;3.35;;
48042;SDS011;33988;47.992;8.820;2024-03-23T04:31:32;7.25;;;3.55;;
48042;SDS011;33988;47.992;8.820;2024-03-23T04:34:01;5.68;;;3.55;;
48042;SDS011;33988;47.992;8.820;2024-03-23T04:36:27;5.20;;;3.92;;
48042;SDS011;33988;47.992;8.820;2024-03-23T04:38:53;6.32;;;3.95;;
48042;SDS011;33988;47.992;8.820;2024-03-23T04:41:24;6.50;;;3.45;;
48042;SDS011;33988;47.992;8.820;2024-03-23T04:43:51;4.85;;;3.65;;
48042;SDS011;33988;47.992;8.820;2024-03-23T04:46:17;4.75;;;3.38;;
48042;SDS011;33988;47.992;8.820;2024-03-23T04:48:43;6.10;;;3.65;;
48042;SDS011;33988;47.992;8.820;2024-03-23T04:51:10;5.03;;;3.53;;
48042;SDS011;33988;47.992;8.820;2024-03-23T04:53:39;4.05;;;3.00;;
48042;SDS011;33988;47.992;8.820;2024-03-23T04:56:09;7.65;;;3.53;;
48042;SDS011;33988;47.992;8.820;2024-03-23T04:58:36;4.45;;;2.78;;
48042;SDS011;33988;47.992;8.820;2024-03-23T05:01:04;4.55;;;2.83;;
48042;SDS011;33988;47.992;8.820;2024-03-23T05:03:30;5.32;;;2.75;;
48042;SDS011;33988;47.992;8.820;2024-03-23T05:05:58;5.53;;;2.28;;
48042;SDS011;33988;47.992;8.820;2024-03-23T05:08:24;3.40;;;1.75;;
48042;SDS011;33988;47.992;8.820;2024-03-23T05:10:52;4.82;;;2.17;;
48042;SDS011;33988;47.992;8.820;2024-03-23T05:13:18;4.13;;;1.80;;
48042;SDS011;33988;47.992;8.820;2024-03-23T05:15:50;2.85;;;1.88;;
48042;SDS011;33988;47.992;8.820;2024-03-23T05:18:23;2.47;;;1.52;;
48042;SDS011;33988;47.992;8.820;2024-03-23T05:20:55;1.98;;;1.60;;
48042;SDS011;33988;47.992;8.820;2024-03-23T05:23:23;5.10;;;1.77;;
48042;SDS011;33988;47.992;8.820;2024-03-23T05:25:50;1.75;;;1.38;;
48042;SDS011;33988;47.992;8.820;2024-03-23T05:28:17;2.50;;;1.77;;
48042;SDS011;33988;47.992;8.820;2024-03-23T05:30:43;3.63;;;1.63;;
48042;SDS011;33988;47.992;8.820;2024-03-23T05:33:15;4.15;;;1.63;;
48042;SDS011;33988;47.992;8.820;2024-03-23T05:35:44;2.30;;;1.60;;
48042;SDS011;33988;47.992;8.820;2024-03-23T05:38:10;2.42;;;1.40;;
48042;SDS011;33988;47.992;8.820;2024-03-23T05:40:36;1.73;;;1.40;;
48042;SDS011;33988;47.992;8.820;2024-03-23T05:43:06;1.98;;;1.25;;
48042;SDS011;33988;47.992;8.820;2024-03-23T05:45:32;1.90;;;1.50;;
48042;SDS011;33988;47.992;8.820;2024-03-23T05:47:58;2.30;;;1.40;;
48042;SDS011;33988;47.992;8.820;2024-03-23T05:50:24;1.90;;;1.30;;
48042;SDS011;33988;47.992;8.820;2024-03-23T05:52:52;2.00;;;1.33;;
48042;SDS011;33988;47.992;8.820;2024-03-23T05:55:18;1.80;;;1.30;;
48042;SDS011;33988;47.992;8.820;2024-03-23T05:57:44;2.60;;;1.50;;
48042;SDS011;33988;47.992;8.820;2024-03-23T06:00:11;1.67;;;1.10;;
48042;SDS011;33988;47.992;8.820;2024-03-23T06:02:43;3.35;;;1.65;;
48042;SDS011;33988;47.992;8.820;2024-03-23T06:05:11;1.38;;;1.27;;
48042;SDS011;33988;47.992;8.820;2024-03-23T06:07:37;4.28;;;1.40;;
48042;SDS011;33988;47.992;8.820;2024-03-23T06:10:06;3.08;;;1.50;;
48042;SDS011;33988;47.992;8.820;2024-03-23T06:12:33;1.88;;;1.40;;
48042;SDS011;33988;47.992;8.820;2024-03-23T06:15:03;1.65;;;1.10;;
48042;SDS011;33988;47.992;8.820;2024-03-23T06:17:38;1.70;;;1.25;;
48042;SDS011;33988;47.992;8.820;2024-03-23T06:20:05;1.98;;;1.23;;
48042;SDS011;33988;47.992;8.820;2024-03-23T06:22:32;2.30;;;1.38;;
48042;SDS011;33988;47.992;8.820;2024-03-23T06:24:58;1.50;;;1.40;;
48042;SDS011;33988;47.992;8.820;2024-03-23T06:27:27;2.65;;;1.63;;
48042;SDS011;33988;47.992;8.820;2024-03-23T06:29:53;2.78;;;1.90;;
48042;SDS011;33988;47.992;8.820;2024-03-23T06:32:20;2.15;;;1.65;;
48042;SDS011;33988;47.992;8.820;2024-03-23T06:34:46;2.05;;;1.60;;
48042;SDS011;33988;47.992;8.820;2024-03-23T06:37:12;1.35;;;1.15;;
48042;SDS011;33988;47.992;8.820;2024-03-23T06:39:40;1.30;;;1.20;;
48042;SDS011;33988;47.992;8.820;2024-03-23T06:42:06;2.55;;;1.60;;
48042;SDS011;33988;47.992;8.820;2024-03-23T06:44:33;1.08;;;0.98;;
48042;SDS011;33988;47.992;8.820;2024-03-23T06:46:59;1.38;;;1.27;;
48042;SDS011;33988;47.992;8.820;2024-03-23T06:49:28;1.40;;;1.30;;
48042;SDS011;33988;47.992;8.820;2024-03-23T06:51:54;1.63;;;1.23;;
48042;SDS011;33988;47.992;8.820;2024-03-23T06:54:20;1.30;;;1.20;;
48042;SDS011;33988;47.992;8.820;2024-03-23T06:56:46;1.65;;;1.50;;
48042;SDS011;33988;47.992;8.820;2024-03-23T06:59:12;1.98;;;1.70;;
48042;SDS011;33988;47.992;8.820;2024-03-23T07:01:38;1.90;;;1.50;;
48042;SDS011;33988;47.992;8.820;2024-03-23T07:04:04;1.65;;;1.33;;
48042;SDS011;33988;47.992;8.820;2024-03-23T07:06:35;1.55;;;1.42;;
48042;SDS011;33988;47.992;8.820;2024-03-23T07:09:13;2.28;;;1.67;;
48042;SDS011;33988;47.992;8.820;2024-03-23T07:11:42;1.80;;;1.70;;
48042;SDS011;33988;47.992;8.820;2024-03-23T07:14:08;2.97;;;2.00;;
48042;SDS011;33988;47.992;8.820;2024-03-23T07:16:37;2.22;;;1.98;;
48042;SDS011;33988;47.992;8.820;2024-03-23T07:19:05;2.70;;;2.05;;
48042;SDS011;33988;47.992;8.820;2024-03-23T07:21:33;2.15;;;1.80;;
48042;SDS011;33988;47.992;8.820;2024-03-23T07:24:01;3.75;;;1.90;;
48042;SDS011;33988;47.992;8.820;2024-03-23T07:26:27;2.45;;;1.60;;
48042;SDS011;33988;47.992;8.820;2024-03-23T07:28:53;1.70;;;1.60;;
48042;SDS011;33988;47.992;8.820;2024-03-23T07:31:19;1.30;;;1.20;;
48042;SDS011;33988;47.992;8.820;2024-03-23T07:33:48;10.00;;;1.58;;
48042;SDS011;33988;47.992;8.820;2024-03-23T07:36:14;3.92;;;1.42;;
48042;SDS011;33988;47.992;8.820;2024-03-23T07:38:41;2.30;;;0.80;;
48042;SDS011;33988;47.992;8.820;2024-03-23T07:41:17;0.75;;;0.75;;
48042;SDS011;33988;47.992;8.820;2024-03-23T07:43:45;0.50;;;0.50;;
48042;SDS011;33988;47.992;8.820;2024-03-23T07:46:14;8.20;;;1.10;;
48042;SDS011;33988;47.992;8.820;2024-03-23T07:48:41;0.95;;;0.60;;
48042;SDS011;33988;47.992;8.820;2024-03-23T07:51:16;0.40;;;0.40;;
48042;SDS011;33988;47.992;8.820;2024-03-23T07:53:45;5.88;;;1.33;;
48042;SDS011;33988;47.992;8.820;2024-03-23T07:56:11;0.50;;;0.50;;
48042;SDS011;33988;47.992;8.820;2024-03-23T07:58:38;1.20;;;0.63;;
48042;SDS011;33988;47.992;8.820;2024-03-23T08:01:11;0.73;;;0.50;;
48042;SDS011;33988;47.992;8.820;2024-03-23T08:03:43;0.43;;;0.43;;
48042;SDS011;33988;47.992;8.820;2024-03-23T08:08:39;0.43;;;0.40;;
48042;SDS011;33988;47.992;8.820;2024-03-23T08:11:06;4.50;;;1.00;;
48042;SDS011;33988;47.992;8.820;2024-03-23T08:13:36;0.43;;;0.43;;
48042;SDS011;33988;47.992;8.820;2024-03-23T08:16:07;0.30;;;0.30;;
48042;SDS011;33988;47.992;8.820;2024-03-23T08:18:38;0.43;;;0.40;;
48042;SDS011;33988;47.992;8.820;2024-03-23T08:21:05;0.50;;;0.30;;
48042;SDS011;33988;47.992;8.820;2024-03-23T08:23:32;0.77;;;0.47;;
48042;SDS011;33988;47.992;8.820;2024-03-23T08:26:03;0.20;;;0.20;;
48042;SDS011;33988;47.992;8.820;2024-03-23T08:28:34;0.20;;;0.20;;
48042;SDS011;33988;47.992;8.820;2024-03-23T08:31:05;0.30;;;0.30;;
48042;SDS011;33988;47.992;8.820;2024-03-23T08:33:36;0.40;;;0.30;;
48042;SDS011;33988;47.992;8.820;2024-03-23T08:38:32;0.30;;;0.30;;
48042;SDS011;33988;47.992;8.820;2024-03-23T08:41:05;1.95;;;0.40;;
48042;SDS011;33988;47.992;8.820;2024-03-23T08:43:38;0.40;;;0.40;;
48042;SDS011;33988;47.992;8.820;2024-03-23T08:46:15;0.40;;;0.40;;
48042;SDS011;33988;47.992;8.820;2024-03-23T08:48:46;0.38;;;0.38;;
48042;SDS011;33988;47.992;8.820;2024-03-23T08:51:14;0.40;;;0.38;;
48042;SDS011;33988;47.992;8.820;2024-03-23T08:53:42;0.38;;;0.30;;
48042;SDS011;33988;47.992;8.820;2024-03-23T08:56:08;1.23;;;0.80;;
48042;SDS011;33988;47.992;8.820;2024-03-23T08:58:36;0.52;;;0.52;;
48042;SDS011;33988;47.992;8.820;2024-03-23T09:01:09;0.55;;;0.50;;
48042;SDS011;33988;47.992;8.820;2024-03-23T09:03:39;1.83;;;0.75;;
48042;SDS011;33988;47.992;8.820;2024-03-23T09:06:09;2.15;;;0.80;;
48042;SDS011;33988;47.992;8.820;2024-03-23T09:08:37;2.05;;;0.90;;
48042;SDS011;33988;47.992;8.820;2024-03-23T09:11:06;1.23;;;0.60;;
48042;SDS011;33988;47.992;8.820;2024-03-23T09:13:37;2.45;;;1.00;;
48042;SDS011;33988;47.992;8.820;2024-03-23T09:16:05;2.80;;;0.87;;
48042;SDS011;33988;47.992;8.820;2024-03-23T09:18:32;3.25;;;0.85;;
48042;SDS011;33988;47.992;8.820;2024-03-23T09:21:00;3.83;;;0.95;;
48042;SDS011;33988;47.992;8.820;2024-03-23T09:23:30;0.98;;;0.80;;
48042;SDS011;33988;47.992;8.820;2024-03-23T09:25:56;1.20;;;0.90;;
48042;SDS011;33988;47.992;8.820;2024-03-23T09:28:22;2.15;;;0.95;;
48042;SDS011;33988;47.992;8.820;2024-03-23T09:30:48;1.95;;;0.93;;
48042;SDS011;33988;47.992;8.820;2024-03-23T09:33:14;1.92;;;0.85;;
48042;SDS011;33988;47.992;8.820;2024-03-23T09:35:40;2.13;;;1.02;;
48042;SDS011;33988;47.992;8.820;2024-03-23T09:38:12;1.95;;;0.90;;
48042;SDS011;33988;47.992;8.820;2024-03-23T09:40:41;4.97;;;1.00;;
48042;SDS011;33988;47.992;8.820;2024-03-23T09:43:11;4.25;;;1.30;;
48042;SDS011;33988;47.992;8.820;2024-03-23T09:45:38;4.25;;;1.23;;
48042;SDS011;33988;47.992;8.820;2024-03-23T09:48:08;2.03;;;1.10;;
48042;SDS011;33988;47.992;8.820;2024-03-23T09:50:41;1.58;;;1.15;;
48042;SDS011;33988;47.992;8.820;2024-03-23T09:53:13;2.03;;;1.30;;
48042;SDS011;33988;47.992;8.820;2024-03-23T09:55:40;2.70;;;1.10;;
48042;SDS011;33988;47.992;8.820;2024-03-23T09:58:12;2.10;;;1.13;;
48042;SDS011;33988;47.992;8.820;2024-03-23T10:00:39;1.92;;;1.13;;
48042;SDS011;33988;47.992;8.820;2024-03-23T10:03:05;2.97;;;1.40;;
48042;SDS011;33988;47.992;8.820;2024-03-23T10:05:32;2.85;;;1.23;;
48042;SDS011;33988;47.992;8.820;2024-03-23T10:10:40;4.07;;;1.50;;
48042;SDS011;33988;47.992;8.820;2024-03-23T10:13:11;2.80;;;1.23;;
48042;SDS011;33988;47.992;8.820;2024-03-23T10:15:58;2.65;;;1.40;;
48042;SDS011;33988;47.992;8.820;2024-03-23T10:18:25;2.40;;;1.60;;
48042;SDS011;33988;47.992;8.820;2024-03-23T10:23:38;3.50;;;1.42;;
48042;SDS011;33988;47.992;8.820;2024-03-23T10:28:57;3.35;;;1.40;;
48042;SDS011;33988;47.992;8.820;2024-03-23T10:31:35;4.50;;;1.70;;
48042;SDS011;33988;47.992;8.820;2024-03-23T10:34:02;2.53;;;1.35;;
48042;SDS011;33988;47.992;8.820;2024-03-23T10:36:29;2.65;;;1.60;;
48042;SDS011;33988;47.992;8.820;2024-03-23T10:38:58;3.30;;;1.60;;
48042;SDS011;33988;47.992;8.820;2024-03-23T10:41:28;3.00;;;1.50;;
48042;SDS011;33988;47.992;8.820;2024-03-23T10:43:57;2.10;;;1.20;;
48042;SDS011;33988;47.992;8.820;2024-03-23T10:46:28;3.63;;;1.50;;
48042;SDS011;33988;47.992;8.820;2024-03-23T10:48:56;1.52;;;1.20;;
48042;SDS011;33988;47.992;8.820;2024-03-23T10:51:23;3.15;;;1.48;;
48042;SDS011;33988;47.992;8.820;2024-03-23T10:53:49;4.43;;;1.50;;
48042;SDS011;33988;47.992;8.820;2024-03-23T10:56:15;5.03;;;1.50;;
48042;SDS011;33988;47.992;8.820;2024-03-23T10:58:44;4.32;;;1.60;;
48042;SDS011;33988;47.992;8.820;2024-03-23T11:01:15;2.67;;;1.40;;
48042;SDS011;33988;47.992;8.820;2024-03-23T11:03:45;2.58;;;1.20;;
48042;SDS011;33988;47.992;8.820;2024-03-23T11:06:33;2.60;;;1.33;;
48042;SDS011;33988;47.992;8.820;2024-03-23T11:09:37;4.13;;;1.75;;
48042;SDS011;33988;47.992;8.820;2024-03-23T11:12:13;2.00;;;1.05;;
48042;SDS011;33988;47.992;8.820;2024-03-23T11:17:27;2.08;;;1.00;;
48042;SDS011;33988;47.992;8.820;2024-03-23T11:19:59;2.17;;;1.13;;
48042;SDS011;33988;47.992;8.820;2024-03-23T11:25:03;2.78;;;1.20;;
48042;SDS011;33988;47.992;8.820;2024-03-23T11:27:43;2.97;;;1.20;;
48042;SDS011;33988;47.992;8.820;2024-03-23T11:35:24;1.67;;;0.90;;
48042;SDS011;33988;47.992;8.820;2024-03-23T11:38:01;2.67;;;1.00;;
48042;SDS011;33988;47.992;8.820;2024-03-23T11:40:33;3.75;;;1.20;;
48042;SDS011;33988;47.992;8.820;2024-03-23T11:43:01;4.53;;;1.30;;
48042;SDS011;33988;47.992;8.820;2024-03-23T11:50:36;2.70;;;0.95;;
48042;SDS011;33988;47.992;8.820;2024-03-23T11:53:18;3.38;;;1.02;;
48042;SDS011;33988;47.992;8.820;2024-03-23T11:55:59;1.75;;;0.90;;
48042;SDS011;33988;47.992;8.820;2024-03-23T11:58:26;2.95;;;1.10;;
48042;SDS011;33988;47.992;8.820;2024-03-23T12:00:59;1.17;;;0.95;;
48042;SDS011;33988;47.992;8.820;2024-03-23T12:03:30;2.40;;;0.90;;
48042;SDS011;33988;47.992;8.820;2024-03-23T12:05:59;1.83;;;1.13;;
48042;SDS011;33988;47.992;8.820;2024-03-23T12:08:31;2.03;;;0.90;;
48042;SDS011;33988;47.992;8.820;2024-03-23T12:13:37;0.50;;;0.45;;
48042;SDS011;33988;47.992;8.820;2024-03-23T12:18:41;1.02;;;0.68;;
48042;SDS011;33988;47.992;8.820;2024-03-23T12:21:19;2.53;;;1.02;;
48042;SDS011;33988;47.992;8.820;2024-03-23T12:23:48;0.40;;;0.40;;
48042;SDS011;33988;47.992;8.820;2024-03-23T12:26:17;1.80;;;0.50;;
48042;SDS011;33988;47.992;8.820;2024-03-23T12:28:43;1.77;;;1.02;;
48042;SDS011;33988;47.992;8.820;2024-03-23T12:31:10;1.90;;;0.77;;
48042;SDS011;33988;47.992;8.820;2024-03-23T12:33:36;6.22;;;1.30;;
48042;SDS011;33988;47.992;8.820;2024-03-23T12:36:02;11.73;;;2.25;;
48042;SDS011;33988;47.992;8.820;2024-03-23T12:38:29;2.20;;;0.85;;
48042;SDS011;33988;47.992;8.820;2024-03-23T12:41:00;1.85;;;0.80;;
48042;SDS011;33988;47.992;8.820;2024-03-23T12:43:26;2.00;;;0.88;;
48042;SDS011;33988;47.992;8.820;2024-03-23T12:45:55;1.63;;;0.90;;
48042;SDS011;33988;47.992;8.820;2024-03-23T12:48:21;1.63;;;0.70;;
48042;SDS011;33988;47.992;8.820;2024-03-23T12:50:54;1.75;;;0.88;;
48042;SDS011;33988;47.992;8.820;2024-03-23T12:53:20;5.10;;;1.02;;
48042;SDS011;33988;47.992;8.820;2024-03-23T12:55:46;2.78;;;0.85;;
48042;SDS011;33988;47.992;8.820;2024-03-23T12:58:13;2.38;;;1.02;;
48042;SDS011;33988;47.992;8.820;2024-03-23T13:00:39;2.60;;;0.80;;
48042;SDS011;33988;47.992;8.820;2024-03-23T13:03:05;2.42;;;0.90;;
48042;SDS011;33988;47.992;8.820;2024-03-23T13:05:31;2.75;;;1.00;;
48042;SDS011;33988;47.992;8.820;2024-03-23T13:07:57;2.50;;;1.05;;
48042;SDS011;33988;47.992;8.820;2024-03-23T13:10:23;2.97;;;1.05;;
48042;SDS011;33988;47.992;8.820;2024-03-23T13:12:51;1.45;;;0.75;;
48042;SDS011;33988;47.992;8.820;2024-03-23T13:15:18;2.10;;;0.90;;
48042;SDS011;33988;47.992;8.820;2024-03-23T13:17:46;5.13;;;1.10;;
48042;SDS011;33988;47.992;8.820;2024-03-23T13:20:12;1.42;;;0.80;;
48042;SDS011;33988;47.992;8.820;2024-03-23T13:22:39;2.72;;;0.90;;
48042;SDS011;33988;47.992;8.820;2024-03-23T13:25:10;3.60;;;0.88;;
48042;SDS011;33988;47.992;8.820;2024-03-23T13:27:36;1.65;;;0.73;;
48042;SDS011;33988;47.992;8.820;2024-03-23T13:30:02;2.03;;;0.88;;
48042;SDS011;33988;47.992;8.820;2024-03-23T13:32:29;2.30;;;0.80;;
48042;SDS011;33988;47.992;8.820;2024-03-23T13:34:55;1.23;;;0.60;;
48042;SDS011;33988;47.992;8.820;2024-03-23T13:37:23;2.33;;;1.05;;
48042;SDS011;33988;47.992;8.820;2024-03-23T13:39:49;0.95;;;0.77;;
48042;SDS011;33988;47.992;8.820;2024-03-23T13:42:18;3.15;;;0.90;;
48042;SDS011;33988;47.992;8.820;2024-03-23T13:44:44;1.92;;;0.80;;
48042;SDS011;33988;47.992;8.820;2024-03-23T13:47:09;1.70;;;0.75;;
48042;SDS011;33988;47.992;8.820;2024-03-23T13:49:38;1.88;;;0.80;;
48042;SDS011;33988;47.992;8.820;2024-03-23T13:52:08;2.42;;;0.60;;
48042;SDS011;33988;47.992;8.820;2024-03-23T13:54:36;1.38;;;0.75;;
48042;SDS011;33988;47.992;8.820;2024-03-23T13:57:02;1.05;;;0.60;;
48042;SDS011;33988;47.992;8.820;2024-03-23T13:59:29;2.20;;;0.75;;
48042;SDS011;33988;47.992;8.820;2024-03-23T14:01:57;1.17;;;0.60;;
48042;SDS011;33988;47.992;8.820;2024-03-23T14:04:26;1.60;;;0.82;;
48042;SDS011;33988;47.992;8.820;2024-03-23T14:06:52;3.08;;;0.70;;
48042;SDS011;33988;47.992;8.820;2024-03-23T14:09:18;1.42;;;0.77;;
48042;SDS011;33988;47.992;8.820;2024-03-23T14:11:48;0.88;;;0.60;;
48042;SDS011;33988;47.992;8.820;2024-03-23T14:14:14;1.98;;;0.75;;
48042;SDS011;33988;47.992;8.820;2024-03-23T14:16:45;1.92;;;0.65;;
48042;SDS011;33988;47.992;8.820;2024-03-23T14:19:11;1.15;;;0.70;;
48042;SDS011;33988;47.992;8.820;2024-03-23T14:21:39;1.33;;;0.70;;
48042;SDS011;33988;47.992;8.820;2024-03-23T14:24:07;4.75;;;1.10;;
48042;SDS011;33988;47.992;8.820;2024-03-23T14:26:37;1.67;;;0.60;;
48042;SDS011;33988;47.992;8.820;2024-03-23T14:29:04;0.77;;;0.57;;
48042;SDS011;33988;47.992;8.820;2024-03-23T14:31:30;4.47;;;1.02;;
48042;SDS011;33988;47.992;8.820;2024-03-23T14:33:56;1.58;;;0.98;;
48042;SDS011;33988;47.992;8.820;2024-03-23T14:36:24;3.45;;;0.90;;
48042;SDS011;33988;47.992;8.820;2024-03-23T14:38:52;1.42;;;0.52;;
48042;SDS011;33988;47.992;8.820;2024-03-23T14:41:20;2.17;;;1.25;;
48042;SDS011;33988;47.992;8.820;2024-03-23T14:43:51;2.60;;;0.80;;
48042;SDS011;33988;47.992;8.820;2024-03-23T14:46:19;1.52;;;0.70;;
48042;SDS011;33988;47.992;8.820;2024-03-23T14:48:45;2.70;;;0.75;;
48042;SDS011;33988;47.992;8.820;2024-03-23T14:51:11;2.10;;;0.85;;
48042;SDS011;33988;47.992;8.820;2024-03-23T14:53:38;1.92;;;0.73;;
48042;SDS011;33988;47.992;8.820;2024-03-23T14:56:07;3.08;;;0.90;;
48042;SDS011;33988;47.992;8.820;2024-03-23T14:58:35;1.60;;;0.65;;
48042;SDS011;33988;47.992;8.820;2024-03-23T15:01:05;1.80;;;0.73;;
48042;SDS011;33988;47.992;8.820;2024-03-23T15:03:38;5.75;;;0.95;;
48042;SDS011;33988;47.992;8.820;2024-03-23T15:06:05;1.17;;;0.70;;
48042;SDS011;33988;47.992;8.820;2024-03-23T15:08:31;2.63;;;0.70;;
48042;SDS011;33988;47.992;8.820;2024-03-23T15:11:01;1.98;;;0.63;;
48042;SDS011;33988;47.992;8.820;2024-03-23T15:13:36;3.08;;;0.88;;
48042;SDS011;33988;47.992;8.820;2024-03-23T15:16:05;2.35;;;0.95;;
48042;SDS011;33988;47.992;8.820;2024-03-23T15:18:35;1.60;;;0.80;;
48042;SDS011;33988;47.992;8.820;2024-03-23T15:21:07;2.00;;;0.70;;
48042;SDS011;33988;47.992;8.820;2024-03-23T15:23:35;1.60;;;0.60;;
48042;SDS011;33988;47.992;8.820;2024-03-23T15:26:01;2.58;;;0.75;;
48042;SDS011;33988;47.992;8.820;2024-03-23T15:28:30;2.08;;;0.90;;
48042;SDS011;33988;47.992;8.820;2024-03-23T15:31:08;2.80;;;0.93;;
48042;SDS011;33988;47.992;8.820;2024-03-23T15:33:35;4.38;;;1.20;;
48042;SDS011;33988;47.992;8.820;2024-03-23T15:36:07;2.30;;;1.20;;
48042;SDS011;33988;47.992;8.820;2024-03-23T15:41:03;4.50;;;1.10;;
48042;SDS011;33988;47.992;8.820;2024-03-23T15:43:30;1.48;;;0.90;;
48042;SDS011;33988;47.992;8.820;2024-03-23T15:46:00;1.60;;;0.80;;
48042;SDS011;33988;47.992;8.820;2024-03-23T15:48:28;1.73;;;0.70;;
48042;SDS011;33988;47.992;8.820;2024-03-23T15:50:56;3.70;;;0.73;;
48042;SDS011;33988;47.992;8.820;2024-03-23T15:53:28;2.00;;;0.80;;
48042;SDS011;33988;47.992;8.820;2024-03-23T15:55:57;1.08;;;0.73;;
48042;SDS011;33988;47.992;8.820;2024-03-23T15:58:25;1.58;;;0.80;;
48042;SDS011;33988;47.992;8.820;2024-03-23T16:00:56;3.75;;;0.80;;
48042;SDS011;33988;47.992;8.820;2024-03-23T16:03:27;1.55;;;0.93;;
48042;SDS011;33988;47.992;8.820;2024-03-23T16:05:54;2.17;;;0.70;;
48042;SDS011;33988;47.992;8.820;2024-03-23T16:08:27;3.00;;;0.73;;
48042;SDS011;33988;47.992;8.820;2024-03-23T16:10:53;1.90;;;0.82;;
48042;SDS011;33988;47.992;8.820;2024-03-23T16:13:20;2.15;;;0.93;;
48042;SDS011;33988;47.992;8.820;2024-03-23T16:15:54;3.38;;;1.15;;
48042;SDS011;33988;47.992;8.820;2024-03-23T16:18:28;1.92;;;0.80;;
48042;SDS011;33988;47.992;8.820;2024-03-23T16:20:58;2.35;;;0.80;;
48042;SDS011;33988;47.992;8.820;2024-03-23T16:23:26;1.30;;;0.80;;